Sycamore Square, Virginia
Current Conditions -  °F | °C
As of 10:55 PM on Sunday 25 Jan 2015 (Local Time) from KFCI Reporting Station
Clear Clear  
Wind Chill: 39°   Ceiling: Unl
Heat Index: 43°   Visibility: 10mi
Dew Point: 27°   Wind: 7mph
Humidity: 53%   Direction: 150°SSE
Pressure: 29.85"   Gusts: NA
Location:  37.5382°N, 77.6692°W
Report Text: KFCI 260355Z AUTO 15006KT 10SM CLR 06/M03 A2985 RMK AO1
Loading
Personal Weather Stations






























Interactive Weather Map New forecast layout! Learn more

10-Day Weather Forecast

Advertisements
Track Severe Weather on mobile